Branchville, NJ

2:21 PM EST on March 03, 2015 (GMT -0500)
Essex County | Change Station
CLOSE
Current Station
Airport
Location: Caldwell,
Elevation: 174 ft
Nearby Weather Stations
Active Advisory: Winter Weather Advisory

Elev 174 ft 40.88 °N, 74.28 °W | Updated 28 minutes ago

Overcast
Overcast
29 °F
Feels Like 23 °F
N
6
Wind Variable Wind from SSW

Today
High -- | Low -- °F
--% Chance of Precip.
Yesterday
High -- | Low -- °F
Precip. -- in
6:30 AM 5:51 PM
Waxing Gibbous, 97% visible
Pressure 30.32 in
Visibility 10.0 miles
Clouds Overcast 7000 ft
Windchill 23 °F
Dew Point 14 °F
Humidity 54%
Rainfall 0.00 in
Snow Depth Not available.
UV 1 out of 12
Pollen .50 out of 12
Air Quality Not available.
Flu Activity Not available.
METAR KCDW 031853Z 21005KT 10SM OVC070 M02/M10 A3030 RMK AO2 SLP268 T10171100

More Conditions Fewer Conditions

Pressure 30.32 in
Visibility 10.0 miles
Clouds Overcast 7000 ft
Windchill 23 °F
Dew Point 14 °F
Humidity 54%
Rainfall 0.00 in
Snow Depth Not available.
UV 1 out of 12
Pollen .50 out of 12
Air Quality Not available.
Flu Activity Not available.
METAR KCDW 031853Z 21005KT 10SM OVC070 M02/M10 A3030 RMK AO2 SLP268 T10171100

More Conditions Fewer Conditions

10-Day Weather Forecast

Almanac

Astronomy

Mar. 03, 2015 Rise Set
Actual Time
Civil Twilight
Nautical Twilight
Astronomical Twilight
Moon
Length of Visible Light
Length of Day
Tomorrow will be .
, % of the Moon is Illuminated

Today's Extremes

State Highs State Lows

Community

WunderPhotos

Upload Photos

1,802,203 photos uploaded!

WunderBlogs® & News

Nearby

Air Quality

  Air Quality AQ Index Pollutant
Not available.

Snow Depth

Station Depth Elevation

Earthquake Activity

City Distance Mag. Time & Date
Minimum magnitude displayed is 2.5.

Coastal Water Temperatures

Place Temperature

Nearby Weather Stations

Winter Weather Advisory
Statement as of 6:44 AM EST on March 03, 2015

... Winter Weather Advisory remains in effect from 3 PM this
afternoon to 9 am EST Wednesday...

* locations... the Pocono region in Pennsylvania, as well as
Sussex County in New Jersey.

* Hazard types... snow, sleet and freezing rain.

* Snow and sleet accumulations... around 1 to 2 inches.

* Ice accumulations... up to around a tenth of an inch.

* Timing... snow will overspread the area during the afternoon
hours. The snow will transition to sleet this evening before
changing to freezing rain for the overnight hours.

* Impacts... untreated surfaces will become snow covered and icy.
Even a light amount of ice could lead to hazardous travel
conditions.

* Temperatures... in the 20s this afternoon, rising to near 32
degrees tonight.

Precautionary/preparedness actions...

This Winter Weather Advisory means that snow, sleet and freezing
rain will cause travel difficulties. Be prepared for slippery
roads and limited visibility. Use extra caution if driving.